Time;durP1;ratioP1;P1;durP2;ratioP2;P2;SDS_P1;SDS_P2;PMS_P1;PMS_P2;Temp;Humidity;BMP_temperature;BMP_pressure;BME280_temperature;BME280_humidity;BME280_pressure;Samples;Min_cycle;Max_cycle;Signal;HPM_P1;HPM_P2
2023/04/04 00:01:48;;;;;;;11.90;4.15;;;0.70;99.90;;;;;;5049422;28;20079;-48
2023/04/04 00:04:13;;;;;;;7.80;4.28;;;0.50;99.90;;;;;;5049273;28;20017;-47
2023/04/04 00:06:43;;;;;;;11.15;3.97;;;0.50;99.90;;;;;;5049123;28;20028;-47
2023/04/04 00:09:09;;;;;;;9.10;4.18;;;0.50;99.90;;;;;;5049073;28;20025;-47
2023/04/04 00:11:34;;;;;;;8.85;3.85;;;0.40;99.90;;;;;;5047703;28;20021;-46
2023/04/04 00:14:01;;;;;;;8.77;3.97;;;0.50;99.90;;;;;;5049326;28;20060;-47
2023/04/04 00:16:26;;;;;;;8.10;3.85;;;0.40;99.90;;;;;;5049044;28;20465;-46
2023/04/04 00:18:52;;;;;;;8.70;3.83;;;0.40;99.90;;;;;;5048717;28;20039;-47
2023/04/04 00:21:17;;;;;;;12.40;4.93;;;0.40;99.90;;;;;;5048870;28;20025;-47
2023/04/04 00:23:43;;;;;;;8.52;4.43;;;0.40;99.90;;;;;;5048945;28;20426;-47
2023/04/04 00:26:09;;;;;;;11.88;4.07;;;0.40;99.90;;;;;;5048793;28;20021;-48
2023/04/04 00:28:34;;;;;;;9.88;4.00;;;0.30;99.90;;;;;;5047254;28;20163;-47
2023/04/04 00:31:01;;;;;;;11.07;4.13;;;0.20;99.90;;;;;;5049239;28;20052;-47
2023/04/04 00:33:26;;;;;;;11.05;4.18;;;0.30;99.90;;;;;;5047547;28;20422;-47
2023/04/04 00:35:52;;;;;;;6.25;4.00;;;0.20;99.90;;;;;;5048816;28;20025;-46
2023/04/04 00:38:17;;;;;;;10.38;4.10;;;0.30;99.90;;;;;;5048406;28;20028;-47
2023/04/04 00:40:46;;;;;;;11.30;4.75;;;0.20;99.90;;;;;;5048930;28;20054;-46
2023/04/04 00:43:13;;;;;;;7.28;3.92;;;0.20;99.90;;;;;;5048883;28;20103;-48
2023/04/04 00:45:39;;;;;;;7.40;3.75;;;0.20;99.90;;;;;;5047370;28;20033;-46
2023/04/04 00:48:05;;;;;;;9.70;3.50;;;0.20;99.90;;;;;;5048828;28;20036;-46
2023/04/04 00:50:31;;;;;;;7.75;3.55;;;0.20;99.90;;;;;;5048580;28;20391;-47
2023/04/04 00:52:57;;;;;;;10.02;4.38;;;0.10;99.90;;;;;;5048937;28;20021;-46
2023/04/04 00:55:23;;;;;;;9.65;4.00;;;0.10;99.90;;;;;;5048726;28;20028;-47
2023/04/04 00:57:49;;;;;;;8.55;3.75;;;0.10;99.90;;;;;;5048190;28;20036;-46
2023/04/04 01:00:15;;;;;;;8.38;4.25;;;0.10;99.90;;;;;;5048014;28;20449;-48
2023/04/04 01:02:40;;;;;;;6.15;4.00;;;0.10;99.90;;;;;;5048497;28;20387;-47
2023/04/04 01:05:07;;;;;;;6.57;3.22;;;0.10;99.90;;;;;;5048051;28;20037;-47
2023/04/04 01:07:35;;;;;;;6.35;3.25;;;0.00;99.90;;;;;;5047709;28;20021;-50
2023/04/04 01:10:02;;;;;;;9.65;3.42;;;0.00;99.90;;;;;;5048346;28;20025;-47
2023/04/04 01:12:29;;;;;;;11.00;4.85;;;0.00;99.90;;;;;;5047003;28;20079;-47
2023/04/04 01:14:54;;;;;;;10.50;3.47;;;0.00;99.90;;;;;;5048661;28;20021;-46
2023/04/04 01:17:21;;;;;;;9.90;3.25;;;0.00;99.90;;;;;;5047614;28;20037;-46
2023/04/04 01:20:01;;;;;;;8.15;3.05;;;0.00;99.90;;;;;;5047737;28;20082;-46
2023/04/04 01:22:29;;;;;;;;;;;-0.10;99.90;;;;;;5048585;28;20013;-46
2023/04/04 01:24:55;;;;;;;10.50;4.28;;;-0.10;99.90;;;;;;5048125;28;19909;-46
2023/04/04 01:27:21;;;;;;;8.93;4.10;;;-0.20;99.90;;;;;;5048522;28;20017;-46
2023/04/04 01:29:48;;;;;;;13.02;3.80;;;-0.20;99.90;;;;;;5052513;28;20112;-46
2023/04/04 01:32:30;;;;;;;8.63;4.05;;;-0.20;99.90;;;;;;5052164;28;20075;-47
2023/04/04 01:35:08;;;;;;;8.80;4.10;;;-0.20;99.90;;;;;;5052592;28;20108;-45
2023/04/04 01:38:06;;;;;;;10.60;3.63;;;-0.20;99.90;;;;;;5051682;28;20025;-46
2023/04/04 01:40:36;;;;;;;11.38;4.10;;;-0.30;99.90;;;;;;5050968;28;20048;-47
2023/04/04 01:43:02;;;;;;;11.70;3.60;;;-0.30;99.90;;;;;;5051656;28;20029;-48
2023/04/04 01:45:28;;;;;;;9.93;3.72;;;-0.30;99.90;;;;;;5051985;28;20025;-46
2023/04/04 01:47:55;;;;;;;7.03;3.40;;;-0.30;99.90;;;;;;5051724;28;20112;-46
2023/04/04 01:50:21;;;;;;;11.23;4.00;;;-0.30;99.90;;;;;;5052001;28;20121;-46
2023/04/04 01:52:47;;;;;;;5.47;3.13;;;-0.40;99.90;;;;;;5052258;28;20305;-46
2023/04/04 01:55:12;;;;;;;8.20;3.60;;;-0.40;99.90;;;;;;5052220;28;20032;-46
2023/04/04 01:57:38;;;;;;;5.55;3.25;;;-0.40;99.90;;;;;;5058978;28;20035;-46
2023/04/04 02:00:04;;;;;;;9.18;4.32;;;-0.40;99.90;;;;;;5050668;28;20032;-46
2023/04/04 02:02:30;;;;;;;5.80;3.58;;;-0.50;99.90;;;;;;5050474;28;20017;-46
2023/04/04 02:04:55;;;;;;;6.78;3.40;;;-0.50;99.90;;;;;;5050278;28;20032;-46
2023/04/04 02:07:22;;;;;;;9.82;3.88;;;-0.40;99.90;;;;;;5049767;28;20913;-46
2023/04/04 02:09:47;;;;;;;9.98;3.65;;;-0.40;99.90;;;;;;5050091;28;20045;-46
2023/04/04 02:12:12;;;;;;;8.82;4.03;;;-0.40;99.90;;;;;;5051876;28;20063;-46
2023/04/04 02:14:38;;;;;;;6.13;3.13;;;-0.50;99.90;;;;;;5051610;28;20024;-46
2023/04/04 02:17:04;;;;;;;6.32;2.97;;;-0.50;99.90;;;;;;5050993;28;20069;-46
2023/04/04 02:19:29;;;;;;;9.50;3.42;;;-0.50;99.90;;;;;;5049974;28;20143;-47
2023/04/04 02:21:55;;;;;;;9.20;2.70;;;-0.60;99.90;;;;;;5051460;28;20241;-46
2023/04/04 02:24:21;;;;;;;8.20;3.13;;;-0.60;99.90;;;;;;5051583;28;20021;-46
2023/04/04 02:26:47;;;;;;;9.50;3.28;;;-0.60;99.90;;;;;;5050626;28;20024;-47
2023/04/04 02:29:12;;;;;;;6.88;4.10;;;-0.60;99.90;;;;;;5051207;28;20017;-47
2023/04/04 02:31:38;;;;;;;9.43;3.75;;;-0.60;99.90;;;;;;5051101;28;20021;-46
2023/04/04 02:34:03;;;;;;;7.07;3.30;;;-0.60;99.90;;;;;;5050696;28;20394;-46
2023/04/04 02:36:29;;;;;;;6.28;2.83;;;-0.70;99.90;;;;;;5051275;28;20028;-47
2023/04/04 02:38:54;;;;;;;4.28;2.42;;;-0.70;99.90;;;;;;5049324;28;20028;-46
2023/04/04 02:41:20;;;;;;;6.13;2.90;;;-0.70;99.90;;;;;;5050534;28;20017;-46
2023/04/04 02:43:46;;;;;;;5.57;3.03;;;-0.80;99.90;;;;;;5050958;28;20044;-46
2023/04/04 02:46:11;;;;;;;7.80;2.83;;;-0.80;99.90;;;;;;5050487;28;20048;-46
2023/04/04 02:48:37;;;;;;;4.70;2.90;;;-0.80;99.90;;;;;;5050646;28;20028;-46
2023/04/04 02:51:02;;;;;;;7.97;3.22;;;-0.80;99.90;;;;;;5050666;28;20017;-46
2023/04/04 02:53:28;;;;;;;7.10;2.85;;;-0.80;99.90;;;;;;5050684;28;20017;-46
2023/04/04 02:55:54;;;;;;;12.52;3.42;;;-0.80;99.90;;;;;;5050260;28;20390;-47
2023/04/04 02:58:20;;;;;;;6.25;3.28;;;-0.80;99.90;;;;;;5050032;28;20028;-46
2023/04/04 03:00:52;;;;;;;8.43;2.72;;;-0.70;99.90;;;;;;5050643;28;20013;-46
2023/04/04 03:03:17;;;;;;;5.20;3.10;;;-0.80;99.90;;;;;;5049348;28;20025;-46
2023/04/04 03:05:43;;;;;;;11.50;3.50;;;-0.70;99.90;;;;;;5050589;28;20025;-46
2023/04/04 03:08:08;;;;;;;12.93;4.13;;;-0.70;99.90;;;;;;5049512;28;20029;-46
2023/04/04 03:10:34;;;;;;;7.25;3.28;;;-0.80;99.90;;;;;;5050339;28;20037;-46
2023/04/04 03:12:59;;;;;;;4.63;2.75;;;-0.70;99.90;;;;;;5050139;28;20174;-46
2023/04/04 03:15:26;;;;;;;8.75;3.78;;;-0.70;99.90;;;;;;5050453;28;20391;-46
2023/04/04 03:17:52;;;;;;;9.85;3.72;;;-0.70;99.90;;;;;;5049844;28;20415;-46
2023/04/04 03:20:18;;;;;;;6.72;3.35;;;-0.70;99.90;;;;;;5050117;28;20041;-46
2023/04/04 03:22:44;;;;;;;12.30;4.28;;;-0.70;99.90;;;;;;5050349;28;20055;-46
2023/04/04 03:25:10;;;;;;;5.70;3.28;;;-0.70;99.90;;;;;;5049954;28;20498;-46
2023/04/04 03:27:36;;;;;;;11.02;4.03;;;-0.70;99.90;;;;;;5049447;28;20520;-46
2023/04/04 03:30:01;;;;;;;6.53;3.67;;;-0.70;99.90;;;;;;5048737;28;20108;-46
2023/04/04 03:32:27;;;;;;;8.65;3.28;;;-0.70;99.90;;;;;;5049848;28;20052;-46
2023/04/04 03:34:53;;;;;;;7.80;2.90;;;-0.80;99.90;;;;;;5050127;28;20021;-46
2023/04/04 03:37:18;;;;;;;8.05;2.90;;;-0.80;99.90;;;;;;5049253;28;20040;-46
2023/04/04 03:39:44;;;;;;;9.60;3.67;;;-0.90;99.90;;;;;;5065101;28;20439;-46
2023/04/04 03:42:11;;;;;;;6.07;2.60;;;-0.80;99.90;;;;;;5049801;28;20031;-46
2023/04/04 03:44:39;;;;;;;6.10;2.65;;;-0.90;99.90;;;;;;5049523;28;20021;-46
2023/04/04 03:47:05;;;;;;;8.38;3.50;;;-0.90;99.90;;;;;;5046971;28;20031;-46
2023/04/04 03:49:31;;;;;;;9.07;3.83;;;-0.90;99.90;;;;;;5046133;28;20478;-47
2023/04/04 03:51:57;;;;;;;11.55;3.67;;;-0.90;99.90;;;;;;5041507;28;20075;-47
2023/04/04 03:54:23;;;;;;;7.40;3.13;;;-0.90;99.90;;;;;;5046718;28;20426;-46
2023/04/04 03:56:48;;;;;;;9.07;3.35;;;-1.00;99.90;;;;;;5045559;28;20032;-47
2023/04/04 03:59:14;;;;;;;8.45;2.88;;;-1.00;99.90;;;;;;5045489;28;20470;-46
2023/04/04 04:01:40;;;;;;;6.55;3.17;;;-1.00;99.90;;;;;;5049368;28;20035;-45
2023/04/04 04:04:05;;;;;;;5.05;3.08;;;-0.90;99.90;;;;;;5043167;28;20048;-46
2023/04/04 04:06:31;;;;;;;8.60;3.72;;;-1.00;99.90;;;;;;5047703;28;20047;-46
2023/04/04 04:08:57;;;;;;;8.25;3.50;;;-1.00;99.90;;;;;;5049016;28;20097;-46
2023/04/04 04:11:22;;;;;;;8.45;2.97;;;-1.00;99.90;;;;;;5048180;28;20056;-48
2023/04/04 04:13:48;;;;;;;5.57;3.22;;;-1.00;99.90;;;;;;5048269;28;20013;-47
2023/04/04 04:16:14;;;;;;;6.13;3.50;;;-1.00;99.90;;;;;;5048691;28;20028;-47
2023/04/04 04:18:39;;;;;;;14.13;4.97;;;-1.00;99.90;;;;;;5056984;28;20032;-46
2023/04/04 04:21:05;;;;;;;6.82;3.53;;;-1.00;99.90;;;;;;5049428;28;20028;-46
2023/04/04 04:23:31;;;;;;;11.32;3.63;;;-1.00;99.90;;;;;;5049037;28;20025;-46
2023/04/04 04:25:57;;;;;;;9.65;3.60;;;-1.00;99.90;;;;;;5047664;28;20056;-46
2023/04/04 04:28:23;;;;;;;7.85;3.58;;;-1.10;99.90;;;;;;5045651;28;20029;-45
2023/04/04 04:30:49;;;;;;;9.75;3.85;;;-1.00;99.90;;;;;;5041809;28;20084;-45
2023/04/04 04:33:14;;;;;;;6.35;3.35;;;-1.10;99.90;;;;;;5043523;28;20490;-46
2023/04/04 04:35:40;;;;;;;8.13;3.67;;;-1.00;99.90;;;;;;5048869;28;20533;-47
2023/04/04 04:38:06;;;;;;;6.68;3.65;;;-1.10;99.90;;;;;;5048459;28;20497;-48
2023/04/04 04:40:32;;;;;;;7.00;3.60;;;-1.00;99.90;;;;;;5048382;28;20024;-46
2023/04/04 04:42:58;;;;;;;7.97;3.38;;;-1.00;99.90;;;;;;5047567;28;20040;-48
2023/04/04 04:45:24;;;;;;;10.77;3.30;;;-1.00;99.90;;;;;;5048585;28;20025;-47
2023/04/04 04:47:50;;;;;;;9.07;3.97;;;-1.00;99.90;;;;;;5048091;28;20037;-47
2023/04/04 04:50:16;;;;;;;6.55;3.38;;;-1.00;99.90;;;;;;5048603;28;20019;-48
2023/04/04 04:52:42;;;;;;;9.07;3.25;;;-1.00;99.90;;;;;;5044362;28;20074;-49
2023/04/04 04:55:08;;;;;;;12.52;4.72;;;-1.00;99.90;;;;;;5039231;28;20440;-47
2023/04/04 04:57:35;;;;;;;9.13;4.07;;;-0.90;99.90;;;;;;5041996;28;20059;-46
2023/04/04 05:00:02;;;;;;;8.02;3.75;;;-0.90;99.90;;;;;;5048954;28;20410;-47
2023/04/04 05:02:28;;;;;;;10.63;4.90;;;-0.80;99.90;;;;;;5046220;28;20025;-47
2023/04/04 05:04:53;;;;;;;9.40;3.60;;;-0.80;99.90;;;;;;5048235;28;20031;-47
2023/04/04 05:07:19;;;;;;;12.27;4.53;;;-0.80;99.90;;;;;;5048070;28;20385;-47
2023/04/04 05:09:44;;;;;;;9.63;4.28;;;-0.80;99.90;;;;;;5047242;28;20387;-48
2023/04/04 05:12:10;;;;;;;11.02;4.15;;;-0.80;99.90;;;;;;5048328;28;20044;-50
2023/04/04 05:14:36;;;;;;;7.65;3.90;;;-0.80;99.90;;;;;;5048302;28;20017;-47
2023/04/04 05:17:02;;;;;;;6.22;3.47;;;-0.80;99.90;;;;;;5048361;28;20044;-47
2023/04/04 05:19:27;;;;;;;5.43;3.35;;;-0.80;99.90;;;;;;5048260;28;20434;-46
2023/04/04 05:21:53;;;;;;;10.73;3.78;;;-0.80;99.90;;;;;;5048325;28;20651;-47
2023/04/04 05:24:18;;;;;;;11.77;3.88;;;-0.80;99.90;;;;;;5046414;28;20076;-47
2023/04/04 05:26:44;;;;;;;12.52;4.00;;;-0.70;99.90;;;;;;5041386;28;20086;-46
2023/04/04 05:29:10;;;;;;;7.32;3.67;;;-0.70;99.90;;;;;;5042379;28;20031;-47
2023/04/04 05:31:35;;;;;;;8.85;3.20;;;-0.70;99.90;;;;;;5041268;28;20510;-47
2023/04/04 05:34:06;;;;;;;6.43;3.53;;;-0.70;99.90;;;;;;5039126;28;20107;-46
2023/04/04 05:36:33;;;;;;;6.50;3.72;;;-0.60;99.90;;;;;;5041233;28;20051;-46
2023/04/04 05:38:59;;;;;;;6.15;3.60;;;-0.60;99.90;;;;;;5038745;28;20024;-47
2023/04/04 05:41:25;;;;;;;9.35;3.78;;;-0.50;99.90;;;;;;5044022;28;20169;-46
2023/04/04 05:43:51;;;;;;;9.75;4.47;;;-0.50;99.90;;;;;;5046162;28;20090;-46
2023/04/04 05:46:16;;;;;;;7.40;3.30;;;-0.40;99.90;;;;;;5047711;28;20477;-46
2023/04/04 05:48:42;;;;;;;7.50;3.70;;;-0.40;99.90;;;;;;5048190;28;20021;-46
2023/04/04 05:51:07;;;;;;;5.57;3.33;;;-0.40;99.90;;;;;;5046981;28;21243;-46
2023/04/04 05:53:33;;;;;;;5.95;3.15;;;-0.30;99.90;;;;;;5047618;28;20413;-46
2023/04/04 05:55:59;;;;;;;6.93;3.13;;;-0.30;99.90;;;;;;5048149;28;20033;-47
2023/04/04 05:58:26;;;;;;;7.90;3.55;;;-0.30;99.90;;;;;;5047839;28;20057;-48
2023/04/04 06:00:52;;;;;;;7.95;3.33;;;-0.20;99.90;;;;;;5047624;28;20501;-50
2023/04/04 06:03:17;;;;;;;10.18;3.33;;;-0.20;99.90;;;;;;5041257;28;20026;-46
2023/04/04 06:05:43;;;;;;;9.13;3.20;;;-0.10;99.90;;;;;;5041719;28;20108;-50
2023/04/04 06:08:09;;;;;;;11.60;3.50;;;0.00;99.90;;;;;;5044433;28;20033;-49
2023/04/04 06:10:34;;;;;;;7.90;4.22;;;-0.10;99.90;;;;;;5047542;28;20021;-47
2023/04/04 06:13:00;;;;;;;9.70;3.80;;;0.00;99.90;;;;;;5047686;28;20032;-46
2023/04/04 06:15:25;;;;;;;43.17;17.83;;;0.00;99.90;;;;;;5051195;28;20028;-47
2023/04/04 06:17:51;;;;;;;24.33;12.90;;;0.10;99.90;;;;;;5050980;28;20099;-46
2023/04/04 06:20:18;;;;;;;13.27;6.25;;;0.10;99.90;;;;;;5051810;28;20032;-46
2023/04/04 06:22:43;;;;;;;10.10;4.88;;;0.10;99.90;;;;;;5051724;28;20020;-46
2023/04/04 06:25:09;;;;;;;9.93;3.70;;;0.10;99.90;;;;;;5051233;28;20075;-46
2023/04/04 06:27:35;;;;;;;8.90;3.88;;;0.10;99.90;;;;;;5050246;28;20009;-47
2023/04/04 06:30:01;;;;;;;7.55;3.88;;;0.10;99.90;;;;;;5051195;28;20086;-49
2023/04/04 06:32:27;;;;;;;6.63;3.28;;;0.20;99.90;;;;;;5050316;28;20086;-47
2023/04/04 06:34:52;;;;;;;12.93;4.65;;;0.20;99.90;;;;;;5051281;28;20630;-46
2023/04/04 06:37:18;;;;;;;7.25;3.60;;;0.20;99.90;;;;;;5050129;28;20084;-46
2023/04/04 06:39:43;;;;;;;7.38;4.03;;;0.20;99.90;;;;;;5051467;28;20017;-46
2023/04/04 06:42:09;;;;;;;7.82;3.63;;;0.30;99.90;;;;;;5050655;28;20390;-46
2023/04/04 06:44:34;;;;;;;7.45;3.50;;;0.30;99.90;;;;;;5048326;28;20052;-46
2023/04/04 06:47:00;;;;;;;8.98;3.58;;;0.40;99.90;;;;;;5047326;28;20037;-46
2023/04/04 06:49:25;;;;;;;9.80;3.58;;;0.40;99.90;;;;;;5050261;28;20029;-50
2023/04/04 06:51:52;;;;;;;9.15;3.20;;;0.50;99.90;;;;;;5050579;28;20520;-48
2023/04/04 06:54:18;;;;;;;8.73;3.92;;;0.60;99.90;;;;;;5050676;28;20367;-47
2023/04/04 06:56:44;;;;;;;8.05;3.10;;;0.60;99.90;;;;;;5050734;28;20017;-46
2023/04/04 06:59:10;;;;;;;5.45;3.22;;;0.80;99.90;;;;;;5049928;28;20037;-47
2023/04/04 07:01:36;;;;;;;10.15;3.88;;;0.80;99.90;;;;;;5043362;28;20064;-48
2023/04/04 07:04:02;;;;;;;11.80;4.15;;;0.70;99.90;;;;;;5038991;28;20111;-46
2023/04/04 07:06:28;;;;;;;8.70;3.10;;;0.70;99.90;;;;;;5048276;28;20624;-46
2023/04/04 07:08:54;;;;;;;11.23;3.78;;;0.80;99.90;;;;;;5048573;28;20537;-47
2023/04/04 07:11:22;;;;;;;7.50;2.97;;;0.80;99.90;;;;;;5050147;28;20263;-47
2023/04/04 07:13:48;;;;;;;8.98;3.40;;;0.90;99.90;;;;;;5040930;28;20052;-47
2023/04/04 07:16:14;;;;;;;15.38;3.00;;;0.90;99.90;;;;;;5046778;28;20518;-47
2023/04/04 07:18:39;;;;;;;7.25;2.95;;;1.00;99.90;;;;;;5042808;28;20021;-47
2023/04/04 07:21:05;;;;;;;7.65;3.10;;;1.10;99.90;;;;;;5041061;28;20493;-46
2023/04/04 07:23:30;;;;;;;9.65;2.78;;;1.10;99.90;;;;;;5048466;28;20482;-46
2023/04/04 07:25:56;;;;;;;14.75;4.78;;;1.20;99.90;;;;;;5042286;28;20103;-48
2023/04/04 07:28:22;;;;;;;9.20;2.53;;;1.20;99.90;;;;;;5047865;28;20028;-48
2023/04/04 07:30:48;;;;;;;7.00;2.90;;;1.40;99.90;;;;;;5043177;28;20017;-47
2023/04/04 07:33:13;;;;;;;5.68;2.58;;;1.80;99.90;;;;;;5046938;28;20071;-47
2023/04/04 07:35:39;;;;;;;6.10;2.78;;;2.10;99.90;;;;;;5050085;28;20462;-46
2023/04/04 07:38:04;;;;;;;9.07;2.67;;;2.40;99.90;;;;;;5049482;28;20041;-46
2023/04/04 07:40:30;;;;;;;9.90;2.80;;;2.50;99.90;;;;;;5049948;28;20451;-47
2023/04/04 07:42:56;;;;;;;6.07;2.70;;;2.50;99.90;;;;;;5049586;28;20474;-46
2023/04/04 07:45:22;;;;;;;6.50;2.60;;;2.40;99.90;;;;;;5048211;28;20025;-47
2023/04/04 07:47:47;;;;;;;8.88;2.67;;;2.40;99.90;;;;;;5044792;28;20544;-46
2023/04/04 07:50:13;;;;;;;9.77;2.83;;;2.40;99.90;;;;;;5041760;28;20071;-46
2023/04/04 07:52:40;;;;;;;9.30;2.85;;;2.30;99.90;;;;;;5042453;28;20398;-48
2023/04/04 07:55:06;;;;;;;5.55;2.60;;;2.40;99.90;;;;;;5046009;28;20079;-47
2023/04/04 07:57:32;;;;;;;4.72;2.45;;;2.50;99.90;;;;;;5049009;28;20426;-50
2023/04/04 07:59:58;;;;;;;7.03;2.45;;;3.00;99.90;;;;;;5049196;28;20045;-47
2023/04/04 08:02:24;;;;;;;6.32;2.58;;;3.80;99.90;;;;;;5049170;28;20054;-46
2023/04/04 08:04:50;;;;;;;8.95;2.35;;;4.60;99.90;;;;;;5049305;28;20029;-47
2023/04/04 08:07:15;;;;;;;8.60;2.53;;;5.10;99.90;;;;;;5048825;28;20017;-48
2023/04/04 08:09:41;;;;;;;4.25;2.10;;;5.30;99.90;;;;;;5049056;28;20021;-46
2023/04/04 08:12:07;;;;;;;6.68;2.10;;;5.60;99.50;;;;;;5049223;28;20017;-47
2023/04/04 08:14:33;;;;;;;7.13;1.98;;;5.90;98.70;;;;;;5048818;28;20076;-47
2023/04/04 08:16:58;;;;;;;5.00;1.80;;;6.00;98.20;;;;;;5048910;28;20471;-47
2023/04/04 08:19:24;;;;;;;5.57;1.90;;;6.30;97.70;;;;;;5048663;28;20499;-47
2023/04/04 08:21:50;;;;;;;5.35;1.92;;;6.90;97.20;;;;;;5049034;28;20052;-47
2023/04/04 08:24:15;;;;;;;4.93;1.95;;;7.60;95.90;;;;;;5047046;28;20055;-47
2023/04/04 08:26:42;;;;;;;2.88;1.77;;;8.40;91.80;;;;;;5048185;28;20021;-46
2023/04/04 08:29:07;;;;;;;3.08;2.17;;;9.60;87.10;;;;;;5045206;28;20565;-47
2023/04/04 08:31:33;;;;;;;3.95;1.80;;;11.10;82.40;;;;;;5042402;28;20021;-48
2023/04/04 08:34:01;;;;;;;4.38;1.70;;;12.30;77.00;;;;;;5039903;28;20517;-46
2023/04/04 08:36:27;;;;;;;5.15;1.90;;;13.70;71.60;;;;;;5047710;28;20302;-46
2023/04/04 08:38:53;;;;;;;3.38;1.80;;;15.20;64.10;;;;;;5048312;28;20112;-47
2023/04/04 08:41:19;;;;;;;3.50;1.70;;;16.20;59.10;;;;;;5045907;28;20116;-48
2023/04/04 08:43:53;;;;;;;4.05;1.40;;;17.20;54.20;;;;;;5047473;28;20029;-47
2023/04/04 08:46:22;;;;;;;2.25;1.30;;;17.40;55.40;;;;;;5041853;28;20332;-49
2023/04/04 08:48:51;;;;;;;2.60;1.50;;;18.20;51.70;;;;;;5044458;28;20245;-47
2023/04/04 08:51:18;;;;;;;3.08;1.50;;;19.00;49.80;;;;;;5037596;28;20041;-47
2023/04/04 08:53:44;;;;;;;3.25;1.27;;;19.10;48.00;;;;;;5042436;28;20479;-47
2023/04/04 08:56:10;;;;;;;1.75;0.90;;;19.80;44.50;;;;;;5045568;28;20029;-47
2023/04/04 08:58:37;;;;;;;1.83;1.00;;;19.70;43.70;;;;;;5041923;28;20033;-47
2023/04/04 09:01:04;;;;;;;1.02;0.75;;;19.90;44.70;;;;;;5039951;28;20442;-46
2023/04/04 09:03:33;;;;;;;2.58;1.30;;;20.10;45.30;;;;;;5046902;28;20016;-47
2023/04/04 09:06:00;;;;;;;2.85;1.20;;;20.00;41.10;;;;;;5046165;28;20037;-47
2023/04/04 09:08:25;;;;;;;3.53;1.15;;;19.50;44.20;;;;;;5044157;28;20029;-47
2023/04/04 09:10:51;;;;;;;3.28;1.50;;;19.90;42.80;;;;;;5042812;28;20451;-47
2023/04/04 09:13:18;;;;;;;1.98;1.25;;;20.10;42.80;;;;;;5040068;28;20072;-47
2023/04/04 09:15:48;;;;;;;2.05;1.20;;;19.90;42.40;;;;;;5042246;28;20104;-47
2023/04/04 09:18:15;;;;;;;4.70;1.55;;;20.80;42.40;;;;;;5040393;28;20419;-48
2023/04/04 09:20:42;;;;;;;3.33;1.23;;;21.40;42.40;;;;;;5042748;28;20516;-46
2023/04/04 09:23:11;;;;;;;2.53;1.10;;;21.80;40.90;;;;;;5040210;28;20049;-47
2023/04/04 09:25:37;;;;;;;3.17;1.02;;;22.30;40.60;;;;;;5041479;28;20053;-48
2023/04/04 09:28:04;;;;;;;2.65;1.25;;;21.10;41.30;;;;;;5045585;28;20569;-47
2023/04/04 09:30:34;;;;;;;2.92;1.20;;;21.30;41.90;;;;;;5040886;28;20542;-47
2023/04/04 09:33:05;;;;;;;4.28;1.35;;;21.20;40.50;;;;;;5041122;28;20527;-47
2023/04/04 09:35:38;;;;;;;3.30;2.08;;;21.10;42.00;;;;;;5043097;28;20500;-49
2023/04/04 09:38:07;;;;;;;4.10;2.00;;;20.80;41.00;;;;;;5036979;28;20051;-48
2023/04/04 09:40:39;;;;;;;3.77;1.27;;;21.10;41.60;;;;;;5042879;28;20079;-47
2023/04/04 09:43:07;;;;;;;2.40;1.00;;;21.40;41.60;;;;;;5072141;28;20617;-48
2023/04/04 09:45:39;;;;;;;1.17;0.88;;;21.90;40.20;;;;;;5041381;28;20108;-47
2023/04/04 09:48:06;;;;;;;1.60;0.90;;;22.50;39.70;;;;;;5044131;28;20433;-48
2023/04/04 09:50:32;;;;;;;2.42;1.33;;;21.80;41.40;;;;;;5048013;28;20015;-49
2023/04/04 09:52:59;;;;;;;2.33;1.20;;;21.60;39.30;;;;;;5043360;28;20029;-49
2023/04/04 09:55:31;;;;;;;2.78;1.30;;;21.20;40.20;;;;;;5043295;28;20108;-46
2023/04/04 09:57:57;;;;;;;2.03;1.27;;;19.20;40.60;;;;;;5050044;28;20021;-46
2023/04/04 10:00:28;;;;;;;2.58;1.40;;;18.60;41.60;;;;;;5047385;28;20044;-48
2023/04/04 10:02:57;;;;;;;1.90;1.13;;;17.40;44.40;;;;;;5046729;28;20513;-46
2023/04/04 10:05:23;;;;;;;2.75;1.30;;;15.80;45.90;;;;;;5045159;28;20028;-45
2023/04/04 10:07:48;;;;;;;2.55;0.93;;;15.40;46.20;;;;;;5049068;28;20031;-46
2023/04/04 10:10:14;;;;;;;2.90;1.15;;;15.90;46.60;;;;;;5051434;28;20032;-45
2023/04/04 10:12:40;;;;;;;3.08;1.42;;;16.50;44.10;;;;;;5050244;28;20101;-46
2023/04/04 10:15:07;;;;;;;3.78;1.35;;;17.40;45.00;;;;;;5051656;28;20515;-46
2023/04/04 10:17:37;;;;;;;2.75;1.05;;;17.40;43.40;;;;;;5051251;28;20414;-46
2023/04/04 10:20:05;;;;;;;;;;;17.30;42.10;;;;;;5052394;28;20459;-47
2023/04/04 10:22:35;;;;;;;3.38;2.28;;;17.90;43.10;;;;;;5051698;28;19905;-46
2023/04/04 10:25:04;;;;;;;;;;;18.80;41.80;;;;;;5050945;28;20120;-50
2023/04/04 10:27:31;;;;;;;5.85;1.70;;;19.30;43.30;;;;;;5041954;28;19906;-49
2023/04/04 10:29:56;;;;;;;1.83;1.30;;;20.10;42.70;;;;;;5045546;28;20025;-47
2023/04/04 10:32:37;;;;;;;1.90;1.10;;;20.40;40.70;;;;;;5043552;28;20009;-47
2023/04/04 10:35:09;;;;;;;8.25;1.30;;;20.90;40.50;;;;;;5049865;28;20029;-47
2023/04/04 10:37:41;;;;;;;1.48;1.15;;;20.90;41.80;;;;;;5052852;28;20381;-48
2023/04/04 10:40:10;;;;;;;3.90;1.42;;;21.40;39.70;;;;;;5051119;28;20025;-47
2023/04/04 10:42:39;;;;;;;3.00;1.30;;;22.10;40.50;;;;;;5050779;28;20590;-47
2023/04/04 10:45:08;;;;;;;7.78;6.75;;;22.60;37.10;;;;;;5051251;28;20548;-47
2023/04/04 10:47:35;;;;;;;1.60;1.33;;;22.50;37.80;;;;;;5050535;28;20072;-50
2023/04/04 10:50:01;;;;;;;2.35;1.13;;;22.00;39.10;;;;;;5050311;28;20021;-47
2023/04/04 10:52:29;;;;;;;1.70;1.23;;;21.00;39.90;;;;;;5042279;28;20029;-48
2023/04/04 10:54:58;;;;;;;2.20;1.10;;;22.30;38.50;;;;;;5043652;28;20077;-48
2023/04/04 10:57:24;;;;;;;2.10;1.38;;;22.60;38.60;;;;;;5053637;28;20045;-47
2023/04/04 11:00:09;;;;;;;2.05;1.15;;;22.90;36.40;;;;;;5038465;28;20395;-50
2023/04/04 11:02:51;;;;;;;2.78;1.30;;;22.90;38.80;;;;;;5033765;28;20017;-49
2023/04/04 11:05:22;;;;;;;4.90;1.35;;;21.80;37.30;;;;;;5032719;28;20386;-47
2023/04/04 11:08:00;;;;;;;2.05;1.20;;;20.80;37.70;;;;;;5048612;28;20493;-47
2023/04/04 11:10:37;;;;;;;2.47;1.30;;;20.00;43.30;;;;;;5034235;28;20100;-47
2023/04/04 11:13:21;;;;;;;2.58;1.20;;;19.50;40.70;;;;;;5034649;28;20034;-48
2023/04/04 11:16:00;;;;;;;2.80;1.13;;;20.20;40.10;;;;;;5029885;28;20442;-47
2023/04/04 11:18:45;;;;;;;2.35;1.02;;;20.90;41.10;;;;;;5033050;28;20055;-47
2023/04/04 11:21:26;;;;;;;3.08;1.23;;;21.40;39.20;;;;;;5033884;28;20022;-50
2023/04/04 11:23:58;;;;;;;2.67;1.20;;;21.20;38.80;;;;;;5043817;28;20032;-49
2023/04/04 11:26:27;;;;;;;4.50;1.38;;;21.10;41.20;;;;;;5041690;28;20057;-48
2023/04/04 11:29:00;;;;;;;4.47;1.42;;;21.20;42.00;;;;;;5044081;28;20021;-49
2023/04/04 11:31:28;;;;;;;1.55;1.15;;;21.30;39.80;;;;;;5044064;28;20032;-48
2023/04/04 11:34:04;;;;;;;3.13;2.10;;;22.10;38.80;;;;;;5034974;28;20025;-47
2023/04/04 11:36:40;;;;;;;3.00;1.33;;;22.80;38.60;;;;;;5040801;28;20037;-48
2023/04/04 11:39:25;;;;;;;3.25;1.60;;;21.50;38.90;;;;;;5041435;28;20563;-47
2023/04/04 11:41:57;;;;;;;2.05;1.27;;;20.90;37.90;;;;;;5040926;28;20440;-46
2023/04/04 11:44:29;;;;;;;3.15;1.33;;;20.10;41.40;;;;;;5040545;28;20025;-47
2023/04/04 11:47:08;;;;;;;2.47;1.40;;;20.60;39.90;;;;;;5040126;28;20682;-47
2023/04/04 11:49:39;;;;;;;2.03;1.10;;;19.60;41.00;;;;;;5040831;28;20074;-47
2023/04/04 11:52:10;;;;;;;2.92;1.30;;;19.00;42.30;;;;;;5044145;28;20101;-47
2023/04/04 11:54:40;;;;;;;5.82;3.67;;;18.30;42.90;;;;;;5047271;28;20049;-46
2023/04/04 11:57:13;;;;;;;6.03;3.55;;;18.50;43.00;;;;;;5049071;28;20025;-48
2023/04/04 11:59:41;;;;;;;2.65;1.60;;;17.80;43.70;;;;;;5049890;28;20032;-46
2023/04/04 12:02:11;;;;;;;2.90;1.15;;;17.80;44.90;;;;;;5049923;28;20025;-46
2023/04/04 12:04:39;;;;;;;4.20;1.70;;;18.20;42.00;;;;;;5049453;28;20024;-46
2023/04/04 12:07:07;;;;;;;2.42;1.23;;;18.90;42.00;;;;;;5049437;28;20025;-47
2023/04/04 12:09:33;;;;;;;2.72;1.50;;;19.40;41.30;;;;;;5048984;28;20154;-47
2023/04/04 12:11:59;;;;;;;2.33;1.20;;;19.60;39.30;;;;;;5048760;28;20017;-47
2023/04/04 12:14:26;;;;;;;2.42;1.30;;;18.80;40.40;;;;;;5049500;28;20550;-48
2023/04/04 12:16:53;;;;;;;3.03;1.90;;;18.90;42.20;;;;;;5049718;28;20025;-48
2023/04/04 12:19:21;;;;;;;4.05;1.45;;;18.30;42.30;;;;;;5048134;28;20093;-49
2023/04/04 12:21:48;;;;;;;4.82;1.60;;;16.90;43.60;;;;;;5049082;28;20103;-47
2023/04/04 12:24:14;;;;;;;4.50;1.55;;;15.80;43.50;;;;;;5049116;28;20071;-46
2023/04/04 12:26:42;;;;;;;3.70;1.40;;;15.60;46.40;;;;;;5048566;28;20067;-45
2023/04/04 12:29:10;;;;;;;2.33;1.58;;;15.70;46.20;;;;;;5049122;28;20021;-46
2023/04/04 12:31:38;;;;;;;2.55;1.33;;;15.50;45.40;;;;;;5049060;28;20025;-45
2023/04/04 12:34:04;;;;;;;1.38;1.10;;;15.60;43.00;;;;;;5048101;28;20028;-46
2023/04/04 12:36:31;;;;;;;3.72;1.60;;;15.00;45.60;;;;;;5046661;28;20029;-46
2023/04/04 12:39:03;;;;;;;3.03;1.42;;;15.20;45.70;;;;;;5049029;28;20103;-46
2023/04/04 12:41:29;;;;;;;4.68;1.45;;;14.90;44.40;;;;;;5043002;28;20406;-46
2023/04/04 12:44:06;;;;;;;3.28;1.73;;;15.00;47.90;;;;;;5043824;28;20021;-46
2023/04/04 12:46:39;;;;;;;2.45;1.42;;;14.90;45.10;;;;;;5040020;28;20229;-47
2023/04/04 12:49:06;;;;;;;3.92;1.52;;;14.50;47.70;;;;;;5042104;28;20021;-47